createdAt,value
2023-03-17T00:02:19.914Z,97821.00
2023-03-17T00:04:54.816Z,97818.00
2023-03-17T00:07:29.886Z,97817.00
2023-03-17T00:10:08.617Z,97813.00
2023-03-17T00:12:45.219Z,97800.00
2023-03-17T00:15:22.535Z,97791.00
2023-03-17T00:17:57.445Z,97789.00
2023-03-17T00:20:33.261Z,97784.00
2023-03-17T00:23:19.634Z,97782.00
2023-03-17T00:25:54.531Z,97771.00
2023-03-17T00:28:29.424Z,97775.00
2023-03-17T00:31:15.349Z,97775.00
2023-03-17T00:33:52.882Z,97778.00
2023-03-17T00:36:32.142Z,97767.00
2023-03-17T00:39:17.708Z,97774.00
2023-03-17T00:41:52.595Z,97774.00
2023-03-17T00:44:27.647Z,97759.00
2023-03-17T00:47:02.801Z,97759.00
2023-03-17T00:49:37.885Z,97759.00
2023-03-17T00:52:13.100Z,97761.00
2023-03-17T00:54:49.495Z,97758.00
2023-03-17T00:57:24.605Z,97750.00
2023-03-17T00:59:59.873Z,97748.00
2023-03-17T01:02:35.529Z,97739.00
2023-03-17T01:05:10.640Z,97738.00
2023-03-17T01:07:52.741Z,97737.00
2023-03-17T01:10:29.336Z,97731.00
2023-03-17T01:13:05.916Z,97733.00
2023-03-17T01:15:48.316Z,97730.00
2023-03-17T01:18:24.100Z,97736.00
2023-03-17T01:20:59.050Z,97730.00
2023-03-17T01:23:34.087Z,97734.00
2023-03-17T01:26:09.542Z,97725.00
2023-03-17T01:28:45.133Z,97736.00
2023-03-17T01:31:20.678Z,97730.00
2023-03-17T01:33:55.638Z,97731.00
2023-03-17T01:36:30.514Z,97719.00
2023-03-17T01:39:05.462Z,97721.00
2023-03-17T01:41:40.460Z,97715.00
2023-03-17T01:44:18.380Z,97717.00
2023-03-17T01:46:54.543Z,97711.00
2023-03-17T01:49:38.171Z,97710.00
2023-03-17T01:52:18.255Z,97703.00
2023-03-17T01:55:05.358Z,97704.00
2023-03-17T01:57:51.410Z,97701.00
2023-03-17T02:00:26.561Z,97698.00
2023-03-17T02:03:01.716Z,97700.00
2023-03-17T02:05:38.342Z,97692.00
2023-03-17T02:08:16.432Z,97699.00
2023-03-17T02:10:52.327Z,97693.00
2023-03-17T02:13:27.195Z,97696.00
2023-03-17T02:16:02.179Z,97712.00
2023-03-17T02:18:37.184Z,97698.00
2023-03-17T02:21:45.246Z,97702.00
2023-03-17T02:24:39.712Z,97695.00
2023-03-17T02:27:39.714Z,97696.00
2023-03-17T02:30:19.139Z,97705.00
2023-03-17T02:32:54.598Z,97720.00
2023-03-17T02:35:31.460Z,97709.00
2023-03-17T02:38:06.797Z,97705.00
2023-03-17T02:40:41.853Z,97706.00
2023-03-17T02:43:16.897Z,97692.00
2023-03-17T02:45:51.871Z,97695.00
2023-03-17T02:48:27.243Z,97683.00
2023-03-17T02:51:03.014Z,97681.00
2023-03-17T02:53:37.906Z,97682.00
2023-03-17T02:56:12.874Z,97682.00
2023-03-17T02:58:47.751Z,97675.00
2023-03-17T03:01:23.021Z,97671.00
2023-03-17T03:03:58.673Z,97678.00
2023-03-17T03:06:34.403Z,97674.00
2023-03-17T03:09:11.746Z,97684.00
2023-03-17T03:11:47.669Z,97680.00
2023-03-17T03:14:24.176Z,97674.00
2023-03-17T03:16:59.596Z,97667.00
2023-03-17T03:19:34.690Z,97669.00
2023-03-17T03:22:10.134Z,97674.00
2023-03-17T03:24:45.483Z,97679.00
2023-03-17T03:27:20.380Z,97672.00
2023-03-17T03:29:55.590Z,97670.00
2023-03-17T03:32:30.531Z,97664.00
2023-03-17T03:35:06.078Z,97669.00
2023-03-17T03:37:41.026Z,97675.00
2023-03-17T03:40:16.115Z,97671.00
2023-03-17T03:42:51.114Z,97668.00
2023-03-17T03:45:26.968Z,97674.00
2023-03-17T03:48:01.967Z,97667.00
2023-03-17T03:50:37.203Z,97677.00
2023-03-17T03:53:12.358Z,97682.00
2023-03-17T03:55:47.348Z,97678.00
2023-03-17T03:58:22.976Z,97676.00
2023-03-17T04:00:57.988Z,97675.00
2023-03-17T04:03:33.085Z,97673.00
2023-03-17T04:06:08.047Z,97674.00
2023-03-17T04:08:43.101Z,97669.00
2023-03-17T04:11:18.345Z,97673.00
2023-03-17T04:13:53.247Z,97673.00
2023-03-17T04:16:28.310Z,97667.00
2023-03-17T04:19:03.717Z,97666.00
2023-03-17T04:21:38.732Z,97668.00
2023-03-17T04:24:14.818Z,97668.00
2023-03-17T04:26:49.858Z,97666.00
2023-03-17T04:29:24.840Z,97656.00
2023-03-17T04:31:59.768Z,97647.00
2023-03-17T04:34:34.697Z,97656.00
2023-03-17T04:37:11.246Z,97647.00
2023-03-17T04:39:47.417Z,97661.00
2023-03-17T04:42:25.302Z,97654.00
2023-03-17T04:45:00.220Z,97644.00
2023-03-17T04:47:35.907Z,97653.00
2023-03-17T04:50:13.915Z,97645.00
2023-03-17T04:52:48.913Z,97637.00
2023-03-17T04:55:23.813Z,97642.00
2023-03-17T04:57:58.786Z,97644.00
2023-03-17T05:00:38.680Z,97639.00
2023-03-17T05:03:26.123Z,97637.00
2023-03-17T05:06:05.275Z,97637.00
2023-03-17T05:08:40.335Z,97636.00
2023-03-17T05:11:15.906Z,97637.00
2023-03-17T05:13:50.916Z,97617.00
2023-03-17T05:16:26.071Z,97638.00
2023-03-17T05:19:01.032Z,97636.00
2023-03-17T05:21:35.948Z,97628.00
2023-03-17T05:24:11.591Z,97630.00
2023-03-17T05:26:46.655Z,97630.00
2023-03-17T05:29:21.698Z,97642.00
2023-03-17T05:31:56.578Z,97642.00
2023-03-17T05:34:32.123Z,97642.00
2023-03-17T05:37:07.622Z,97642.00
2023-03-17T05:39:42.632Z,97652.00
2023-03-17T05:42:18.231Z,97655.00
2023-03-17T05:44:53.419Z,97650.00
2023-03-17T05:47:28.473Z,97653.00
2023-03-17T05:50:05.625Z,97650.00
2023-03-17T05:52:40.656Z,97651.00
2023-03-17T05:55:16.094Z,97647.00
2023-03-17T05:57:51.435Z,97644.00
2023-03-17T06:00:26.988Z,97634.00
2023-03-17T06:03:03.880Z,97626.00
2023-03-17T06:05:39.480Z,97638.00
2023-03-17T06:08:15.104Z,97642.00
2023-03-17T06:10:50.313Z,97634.00
2023-03-17T06:13:25.734Z,97637.00
2023-03-17T06:16:00.813Z,97648.00
2023-03-17T06:18:36.734Z,97647.00
2023-03-17T06:21:13.158Z,97656.00
2023-03-17T06:23:48.194Z,97655.00
2023-03-17T06:26:23.166Z,97653.00
2023-03-17T06:28:58.215Z,97652.00
2023-03-17T06:31:33.288Z,97651.00
2023-03-17T06:34:08.470Z,97662.00
2023-03-17T06:36:44.069Z,97662.00
2023-03-17T06:39:19.177Z,97647.00
2023-03-17T06:41:54.300Z,97650.00
2023-03-17T06:44:29.389Z,97650.00
2023-03-17T06:47:04.836Z,97643.00
2023-03-17T06:49:39.957Z,97642.00
2023-03-17T06:52:15.034Z,97636.00
2023-03-17T06:54:50.277Z,97637.00
2023-03-17T06:57:26.348Z,97639.00
2023-03-17T07:00:01.464Z,97643.00
2023-03-17T07:02:36.604Z,97642.00
2023-03-17T07:05:13.959Z,97654.00
2023-03-17T07:07:49.699Z,97645.00
2023-03-17T07:10:25.549Z,97654.00
2023-03-17T07:13:00.565Z,97648.00
2023-03-17T07:15:38.790Z,97650.00
2023-03-17T07:18:17.065Z,97661.00
2023-03-17T07:21:38.417Z,97662.00
2023-03-17T07:24:13.667Z,97658.00
2023-03-17T07:26:49.144Z,97658.00
2023-03-17T07:29:24.347Z,97643.00
2023-03-17T07:31:59.318Z,97664.00
2023-03-17T07:34:35.712Z,97664.00
2023-03-17T07:37:12.111Z,97663.00
2023-03-17T07:39:48.461Z,97660.00
2023-03-17T07:42:23.412Z,97657.00
2023-03-17T07:44:58.422Z,97660.00
2023-03-17T07:47:33.398Z,97658.00
2023-03-17T07:50:09.692Z,97660.00
2023-03-17T07:52:44.693Z,97648.00
2023-03-17T07:55:19.641Z,97643.00
2023-03-17T07:57:54.552Z,97638.00
2023-03-17T08:00:30.043Z,97641.00
2023-03-17T08:03:10.354Z,97641.00
2023-03-17T08:05:47.075Z,97639.00
2023-03-17T08:08:23.887Z,97642.00
2023-03-17T08:11:03.746Z,97642.00
2023-03-17T08:13:39.064Z,97648.00
2023-03-17T08:16:14.161Z,97652.00
2023-03-17T08:18:52.487Z,97655.00
2023-03-17T08:21:29.363Z,97654.00
2023-03-17T08:24:09.895Z,97636.00
2023-03-17T08:26:49.323Z,97638.00
2023-03-17T08:29:25.512Z,97633.00
2023-03-17T08:32:00.521Z,97628.00
2023-03-17T08:34:36.273Z,97632.00
2023-03-17T08:37:11.606Z,97632.00
2023-03-17T08:39:47.051Z,97637.00
2023-03-17T08:42:22.378Z,97634.00
2023-03-17T08:44:57.718Z,97626.00
2023-03-17T08:47:35.032Z,97624.00
2023-03-17T08:50:18.244Z,97623.00
2023-03-17T08:52:54.232Z,97624.00
2023-03-17T08:55:29.726Z,97622.00
2023-03-17T08:58:05.392Z,97622.00
2023-03-17T09:00:40.817Z,97619.00
2023-03-17T09:03:16.446Z,97612.00
2023-03-17T09:05:51.995Z,97612.00
2023-03-17T09:08:27.954Z,97615.00
2023-03-17T09:11:05.383Z,97623.00
2023-03-17T09:13:41.405Z,97611.00
2023-03-17T09:16:18.154Z,97606.00
2023-03-17T09:18:53.597Z,97614.00
2023-03-17T09:21:28.623Z,97614.00
2023-03-17T09:24:04.701Z,97607.00
2023-03-17T09:26:41.072Z,97610.00
2023-03-17T09:29:16.052Z,97608.00
2023-03-17T09:31:51.505Z,97604.00
2023-03-17T09:34:27.009Z,97608.00
2023-03-17T09:37:02.900Z,97606.00
2023-03-17T09:39:37.885Z,97604.00
2023-03-17T09:42:40.693Z,97613.00
2023-03-17T09:45:29.669Z,97610.00
2023-03-17T09:48:33.559Z,97608.00
2023-03-17T09:51:14.501Z,97612.00
2023-03-17T09:54:04.145Z,97610.00
2023-03-17T09:56:46.798Z,97604.00
2023-03-17T09:59:33.408Z,97610.00
2023-03-17T10:02:31.582Z,97607.00
2023-03-17T10:05:27.929Z,97605.00
2023-03-17T10:08:30.741Z,97596.00
2023-03-17T10:11:32.677Z,97596.00
2023-03-17T10:14:31.373Z,97591.00
2023-03-17T10:17:22.154Z,97588.00
2023-03-17T10:20:19.238Z,97587.00
2023-03-17T10:23:01.683Z,97585.00
2023-03-17T10:25:37.378Z,97576.00
2023-03-17T10:28:18.101Z,97577.00
2023-03-17T10:30:53.889Z,97574.00
2023-03-17T10:33:29.114Z,97567.00
2023-03-17T10:36:09.598Z,97574.00
2023-03-17T10:38:55.179Z,97570.00
2023-03-17T10:41:32.756Z,97568.00
2023-03-17T10:44:55.056Z,97566.00
2023-03-17T10:47:38.142Z,97563.00
2023-03-17T10:50:32.482Z,97560.00
2023-03-17T10:53:18.301Z,97558.00
2023-03-17T10:55:57.946Z,97571.00
2023-03-17T10:58:43.396Z,97558.00
2023-03-17T11:01:27.861Z,97558.00
2023-03-17T11:04:03.918Z,97563.00
2023-03-17T11:06:43.845Z,97556.00
2023-03-17T11:09:21.458Z,97547.00
2023-03-17T11:12:08.832Z,97550.00
2023-03-17T11:14:44.340Z,97540.00
2023-03-17T11:17:37.838Z,97542.00
2023-03-17T11:20:34.919Z,97533.00
2023-03-17T11:23:52.898Z,97533.00
2023-03-17T11:27:01.277Z,97534.00
2023-03-17T11:30:01.529Z,97527.00
2023-03-17T11:32:41.987Z,97533.00
2023-03-17T11:35:48.319Z,97520.00
2023-03-17T11:38:30.265Z,97510.00
2023-03-17T11:41:26.161Z,97516.00
2023-03-17T11:44:32.880Z,97511.00
2023-03-17T11:47:41.923Z,97503.00
2023-03-17T11:50:30.856Z,97501.00
2023-03-17T11:53:45.439Z,97494.00
2023-03-17T11:56:30.756Z,97503.00
2023-03-17T11:59:16.134Z,97501.00
2023-03-17T12:02:04.771Z,97493.00
2023-03-17T12:05:10.046Z,97500.00
2023-03-17T12:07:53.256Z,97492.00
2023-03-17T12:10:40.613Z,97489.00
2023-03-17T12:13:28.053Z,97485.00
2023-03-17T12:16:10.825Z,97495.00
2023-03-17T12:19:11.373Z,97491.00
2023-03-17T12:22:02.745Z,97488.00
2023-03-17T12:25:25.694Z,97480.00
2023-03-17T12:28:11.817Z,97485.00
2023-03-17T12:30:54.322Z,97467.00
2023-03-17T12:33:46.422Z,97473.00
2023-03-17T12:36:21.908Z,97476.00
2023-03-17T12:39:02.143Z,97470.00
2023-03-17T12:41:57.497Z,97474.00
2023-03-17T12:44:53.660Z,97470.00
2023-03-17T12:47:52.133Z,97471.00
2023-03-17T12:51:06.744Z,97472.00
2023-03-17T12:53:47.773Z,97467.00
2023-03-17T12:56:34.404Z,97463.00
2023-03-17T12:59:26.032Z,97457.00
2023-03-17T13:02:27.780Z,97459.00
2023-03-17T13:05:09.140Z,97455.00
2023-03-17T13:07:53.794Z,97457.00
2023-03-17T13:10:48.796Z,97444.00
2023-03-17T13:13:55.395Z,97437.00
2023-03-17T13:16:37.227Z,97435.00
2023-03-17T13:19:23.298Z,97429.00
2023-03-17T13:22:21.317Z,97436.00
2023-03-17T13:25:35.968Z,97428.00
2023-03-17T13:28:13.868Z,97427.00
2023-03-17T13:30:56.978Z,97420.00
2023-03-17T13:33:32.519Z,97418.00
2023-03-17T13:36:25.506Z,97414.00
2023-03-17T13:39:49.471Z,97411.00
2023-03-17T13:43:09.450Z,97410.00
2023-03-17T13:45:46.584Z,97405.00
2023-03-17T13:48:29.352Z,97401.00
2023-03-17T13:51:27.456Z,97403.00
2023-03-17T13:54:30.571Z,97400.00
2023-03-17T13:57:26.435Z,97401.00
2023-03-17T14:00:14.773Z,97394.00
2023-03-17T14:03:06.159Z,97381.00
2023-03-17T14:05:43.010Z,97390.00
2023-03-17T14:08:35.852Z,97384.00
2023-03-17T14:11:32.761Z,97377.00
2023-03-17T14:14:38.378Z,97381.00
2023-03-17T14:17:44.937Z,97379.00
2023-03-17T14:20:23.244Z,97375.00
2023-03-17T14:23:03.794Z,97370.00
2023-03-17T14:25:40.018Z,97369.00
2023-03-17T14:28:19.625Z,97367.00
2023-03-17T14:31:00.466Z,97367.00
2023-03-17T14:33:41.238Z,97368.00
2023-03-17T14:36:16.224Z,97365.00
2023-03-17T14:38:54.486Z,97364.00
2023-03-17T14:41:30.725Z,97365.00
2023-03-17T14:44:09.438Z,97364.00
2023-03-17T14:46:44.402Z,97356.00
2023-03-17T14:49:21.076Z,97348.00
2023-03-17T14:51:58.259Z,97351.00
2023-03-17T14:54:35.361Z,97359.00
2023-03-17T14:57:15.762Z,97354.00
2023-03-17T15:00:01.669Z,97352.00
2023-03-17T15:02:38.249Z,97356.00
2023-03-17T15:05:38.017Z,97348.00
2023-03-17T15:08:34.459Z,97355.00
2023-03-17T15:11:26.863Z,97357.00
2023-03-17T15:14:27.731Z,97344.00
2023-03-17T15:17:07.016Z,97347.00
2023-03-17T15:19:48.778Z,97339.00
2023-03-17T15:22:34.489Z,97349.00
2023-03-17T15:25:27.844Z,97347.00
2023-03-17T15:28:19.334Z,97354.00
2023-03-17T15:30:59.487Z,97339.00
2023-03-17T15:33:37.487Z,97331.00
2023-03-17T15:36:31.330Z,97336.00
2023-03-17T15:39:09.454Z,97344.00
2023-03-17T15:41:44.339Z,97342.00
2023-03-17T15:44:19.324Z,97346.00
2023-03-17T15:46:54.658Z,97342.00
2023-03-17T15:49:30.342Z,97341.00
2023-03-17T15:52:21.582Z,97340.00
2023-03-17T15:54:59.180Z,97341.00
2023-03-17T15:57:34.070Z,97346.00
2023-03-17T16:00:14.605Z,97329.00
2023-03-17T16:02:56.239Z,97329.00
2023-03-17T16:05:33.211Z,97324.00
2023-03-17T16:08:14.887Z,97338.00
2023-03-17T16:10:49.903Z,97333.00
2023-03-17T16:13:24.860Z,97336.00
2023-03-17T16:16:05.287Z,97330.00
2023-03-17T16:18:41.711Z,97326.00
2023-03-17T16:21:17.032Z,97326.00
2023-03-17T16:23:52.178Z,97334.00
2023-03-17T16:26:28.609Z,97331.00
2023-03-17T16:29:13.937Z,97329.00
2023-03-17T16:31:50.866Z,97330.00
2023-03-17T16:34:26.133Z,97328.00
2023-03-17T16:37:01.013Z,97332.00
2023-03-17T16:39:36.150Z,97327.00
2023-03-17T16:42:24.138Z,97330.00
2023-03-17T16:44:59.106Z,97327.00
2023-03-17T16:47:34.319Z,97341.00
2023-03-17T16:50:19.594Z,97337.00
2023-03-17T16:52:54.642Z,97339.00
2023-03-17T16:55:30.131Z,97342.00
2023-03-17T16:58:24.786Z,97351.00
2023-03-17T17:01:04.017Z,97359.00
2023-03-17T17:03:38.895Z,97360.00
2023-03-17T17:06:14.462Z,97361.00
2023-03-17T17:08:50.855Z,97361.00
2023-03-17T17:11:25.747Z,97354.00
2023-03-17T17:14:00.740Z,97359.00
2023-03-17T17:16:37.383Z,97361.00
2023-03-17T17:19:16.917Z,97363.00
2023-03-17T17:21:51.804Z,97374.00
2023-03-17T17:24:27.605Z,97385.00
2023-03-17T17:27:02.521Z,97387.00
2023-03-17T17:29:37.622Z,97392.00
2023-03-17T17:32:13.304Z,97388.00
2023-03-17T17:34:48.218Z,97405.00
2023-03-17T17:37:23.489Z,97401.00
2023-03-17T17:39:58.989Z,97396.00
2023-03-17T17:42:34.590Z,97396.00
2023-03-17T17:45:10.664Z,97422.00
2023-03-17T17:47:46.095Z,97414.00
2023-03-17T17:50:27.928Z,97409.00
2023-03-17T17:53:08.478Z,97416.00
2023-03-17T17:55:45.722Z,97418.00
2023-03-17T17:58:24.375Z,97420.00
2023-03-17T18:00:59.797Z,97415.00
2023-03-17T18:03:34.807Z,97418.00
2023-03-17T18:06:10.119Z,97421.00
2023-03-17T18:08:45.436Z,97426.00
2023-03-17T18:11:20.547Z,97428.00
2023-03-17T18:13:55.509Z,97427.00
2023-03-17T18:16:30.417Z,97432.00
2023-03-17T18:19:08.937Z,97436.00
2023-03-17T18:21:44.505Z,97432.00
2023-03-17T18:24:19.514Z,97436.00
2023-03-17T18:26:54.555Z,97441.00
2023-03-17T18:29:29.683Z,97449.00
2023-03-17T18:32:05.989Z,97447.00
2023-03-17T18:34:46.549Z,97450.00
2023-03-17T18:37:21.878Z,97440.00
2023-03-17T18:40:12.235Z,97444.00
2023-03-17T18:42:48.668Z,97442.00
2023-03-17T18:45:23.741Z,97444.00
2023-03-17T18:47:58.734Z,97447.00
2023-03-17T18:50:34.653Z,97452.00
2023-03-17T18:53:09.564Z,97457.00
2023-03-17T18:55:44.537Z,97465.00
2023-03-17T18:58:19.950Z,97470.00
2023-03-17T19:01:02.352Z,97469.00
2023-03-17T19:03:37.311Z,97480.00
2023-03-17T19:06:16.880Z,97476.00
2023-03-17T19:08:51.725Z,97475.00
2023-03-17T19:11:26.675Z,97484.00
2023-03-17T19:14:02.050Z,97481.00
2023-03-17T19:16:36.992Z,97474.00
2023-03-17T19:19:11.950Z,97483.00
2023-03-17T19:21:46.814Z,97477.00
2023-03-17T19:24:22.109Z,97476.00
2023-03-17T19:26:57.325Z,97477.00
2023-03-17T19:29:33.377Z,97476.00
2023-03-17T19:32:09.233Z,97473.00
2023-03-17T19:34:44.266Z,97477.00
2023-03-17T19:37:19.465Z,97480.00
2023-03-17T19:39:54.417Z,97480.00
2023-03-17T19:42:29.794Z,97487.00
2023-03-17T19:45:06.034Z,97488.00
2023-03-17T19:47:41.109Z,97486.00
2023-03-17T19:50:16.334Z,97490.00
2023-03-17T19:52:53.092Z,97492.00
2023-03-17T19:55:29.608Z,97481.00
2023-03-17T19:58:05.811Z,97487.00
2023-03-17T20:00:44.176Z,97487.00
2023-03-17T20:03:19.357Z,97498.00
2023-03-17T20:05:54.501Z,97490.00
2023-03-17T20:08:29.402Z,97494.00
2023-03-17T20:11:06.006Z,97488.00
2023-03-17T20:13:41.258Z,97486.00
2023-03-17T20:16:17.294Z,97495.00
2023-03-17T20:18:52.925Z,97499.00
2023-03-17T20:21:28.209Z,97490.00
2023-03-17T20:24:03.557Z,97503.00
2023-03-17T20:26:39.774Z,97513.00
2023-03-17T20:29:16.079Z,97515.00
2023-03-17T20:31:51.588Z,97520.00
2023-03-17T20:34:26.956Z,97516.00
2023-03-17T20:37:02.776Z,97516.00
2023-03-17T20:39:38.276Z,97518.00
2023-03-17T20:42:14.750Z,97517.00
2023-03-17T20:44:52.857Z,97524.00
2023-03-17T20:47:28.270Z,97522.00
2023-03-17T20:50:06.241Z,97517.00
2023-03-17T20:52:41.933Z,97524.00
2023-03-17T20:55:19.706Z,97511.00
2023-03-17T20:57:54.768Z,97520.00
2023-03-17T21:00:32.250Z,97523.00
2023-03-17T21:03:09.877Z,97517.00
2023-03-17T21:05:45.761Z,97521.00
2023-03-17T21:08:21.081Z,97531.00
2023-03-17T21:10:55.977Z,97527.00
2023-03-17T21:13:32.848Z,97520.00
2023-03-17T21:16:08.524Z,97523.00
2023-03-17T21:18:43.430Z,97521.00
2023-03-17T21:21:19.338Z,97529.00
2023-03-17T21:23:55.342Z,97525.00
2023-03-17T21:26:30.309Z,97518.00
2023-03-17T21:29:05.221Z,97525.00
2023-03-17T21:31:40.173Z,97526.00
2023-03-17T21:34:15.104Z,97524.00
2023-03-17T21:36:53.858Z,97519.00
2023-03-17T21:39:29.805Z,97509.00
2023-03-17T21:42:05.476Z,97510.00
2023-03-17T21:44:40.919Z,97513.00
2023-03-17T21:47:16.488Z,97514.00
2023-03-17T21:49:51.822Z,97517.00
2023-03-17T21:52:27.003Z,97521.00
2023-03-17T21:55:02.141Z,97531.00
2023-03-17T21:57:37.763Z,97534.00
2023-03-17T22:00:13.522Z,97538.00
2023-03-17T22:02:50.069Z,97543.00
2023-03-17T22:05:25.094Z,97546.00
2023-03-17T22:08:00.479Z,97545.00
2023-03-17T22:10:35.336Z,97549.00
2023-03-17T22:13:10.372Z,97547.00
2023-03-17T22:15:45.784Z,97552.00
2023-03-17T22:18:21.124Z,97553.00
2023-03-17T22:20:57.779Z,97549.00
2023-03-17T22:23:39.620Z,97561.00
2023-03-17T22:26:17.884Z,97557.00
2023-03-17T22:28:53.130Z,97559.00
2023-03-17T22:31:29.683Z,97553.00
2023-03-17T22:34:04.647Z,97558.00
2023-03-17T22:36:39.668Z,97566.00
2023-03-17T22:39:14.584Z,97576.00
2023-03-17T22:41:49.506Z,97580.00
2023-03-17T22:44:24.392Z,97581.00
2023-03-17T22:46:59.301Z,97580.00
2023-03-17T22:49:34.373Z,97590.00
2023-03-17T22:52:09.429Z,97588.00
2023-03-17T22:54:44.343Z,97587.00
2023-03-17T22:57:19.198Z,97586.00
2023-03-17T22:59:56.993Z,97585.00
2023-03-17T23:02:31.983Z,97585.00
2023-03-17T23:05:08.746Z,97582.00
2023-03-17T23:07:51.753Z,97583.00
2023-03-17T23:10:28.462Z,97581.00
2023-03-17T23:13:03.826Z,97581.00
2023-03-17T23:15:39.062Z,97588.00
2023-03-17T23:18:14.043Z,97579.00
2023-03-17T23:20:50.242Z,97586.00
2023-03-17T23:23:25.189Z,97600.00
2023-03-17T23:26:00.252Z,97592.00
2023-03-17T23:28:35.193Z,97602.00
2023-03-17T23:31:11.050Z,97596.00
2023-03-17T23:33:47.506Z,97604.00
2023-03-17T23:36:22.439Z,97602.00
2023-03-17T23:38:57.346Z,97605.00
2023-03-17T23:41:32.247Z,97608.00
2023-03-17T23:44:08.717Z,97613.00
2023-03-17T23:46:45.047Z,97604.00
2023-03-17T23:49:19.980Z,97613.00
2023-03-17T23:51:54.870Z,97604.00
2023-03-17T23:54:29.779Z,97606.00
2023-03-17T23:57:05.314Z,97616.00
2023-03-17T23:59:40.403Z,97615.00
